createdAt,value
2018-12-04T00:00:54.050Z,8.00
2018-12-04T00:03:22.377Z,8.00
2018-12-04T00:05:50.670Z,8.00
2018-12-04T00:08:18.956Z,7.90
2018-12-04T00:10:47.590Z,7.90
2018-12-04T00:13:15.885Z,7.80
2018-12-04T00:15:44.186Z,7.70
2018-12-04T00:18:12.798Z,7.70
2018-12-04T00:20:41.085Z,7.70
2018-12-04T00:23:09.465Z,7.70
2018-12-04T00:25:38.302Z,7.70
2018-12-04T00:28:06.630Z,7.80
2018-12-04T00:30:34.953Z,7.90
2018-12-04T00:33:03.290Z,8.00
2018-12-04T00:35:31.909Z,8.10
2018-12-04T00:38:00.224Z,8.10
2018-12-04T00:40:28.834Z,8.10
2018-12-04T00:42:57.183Z,8.20
2018-12-04T00:45:25.487Z,8.20
2018-12-04T00:47:53.818Z,8.20
2018-12-04T00:50:22.141Z,8.20
2018-12-04T00:52:50.429Z,8.20
2018-12-04T00:55:19.654Z,8.20
2018-12-04T00:57:48.069Z,8.20
2018-12-04T01:00:16.382Z,8.20
2018-12-04T01:02:44.965Z,8.20
2018-12-04T01:05:13.258Z,8.20
2018-12-04T01:07:41.545Z,8.20
2018-12-04T01:10:09.960Z,8.20
2018-12-04T01:12:38.292Z,8.20
2018-12-04T01:15:07.342Z,8.20
2018-12-04T01:17:36.246Z,8.20
2018-12-04T01:20:05.937Z,8.20
2018-12-04T01:22:34.272Z,8.20
2018-12-04T01:25:03.117Z,8.20
2018-12-04T01:27:31.417Z,8.10
2018-12-04T01:29:59.870Z,8.10
2018-12-04T01:32:28.519Z,8.00
2018-12-04T01:34:56.798Z,8.00
2018-12-04T01:37:25.111Z,7.90
2018-12-04T01:39:53.561Z,7.90
2018-12-04T01:42:21.967Z,7.90
2018-12-04T01:44:50.273Z,7.90
2018-12-04T01:47:18.582Z,7.80
2018-12-04T01:49:46.874Z,7.80
2018-12-04T01:52:15.179Z,7.80
2018-12-04T01:54:43.854Z,7.80
2018-12-04T01:57:12.177Z,7.70
2018-12-04T01:59:41.193Z,7.60
2018-12-04T02:02:09.658Z,7.60
2018-12-04T02:04:37.941Z,7.70
2018-12-04T02:07:06.233Z,7.80
2018-12-04T02:09:35.001Z,7.70
2018-12-04T02:12:03.297Z,7.70
2018-12-04T02:14:31.595Z,7.70
2018-12-04T02:17:00.541Z,7.70
2018-12-04T02:19:28.854Z,7.70
2018-12-04T02:21:57.185Z,7.70
2018-12-04T02:24:25.498Z,7.70
2018-12-04T02:26:53.942Z,7.80
2018-12-04T02:29:22.239Z,7.80
2018-12-04T02:31:50.938Z,7.80
2018-12-04T02:34:19.338Z,7.80
2018-12-04T02:36:47.658Z,7.70
2018-12-04T02:39:16.103Z,7.70
2018-12-04T02:41:44.402Z,7.80
2018-12-04T02:44:12.713Z,7.90
2018-12-04T02:46:41.451Z,7.90
2018-12-04T02:49:09.747Z,7.90
2018-12-04T02:51:38.058Z,7.80
2018-12-04T02:54:06.757Z,7.70
2018-12-04T02:56:35.054Z,7.50
2018-12-04T02:59:03.410Z,7.50
2018-12-04T03:01:31.722Z,7.40
2018-12-04T03:04:00.105Z,7.30
2018-12-04T03:06:28.402Z,7.10
2018-12-04T03:08:56.818Z,7.00
2018-12-04T03:11:25.105Z,7.00
2018-12-04T03:13:53.398Z,6.90
2018-12-04T03:16:22.071Z,6.80
2018-12-04T03:18:50.370Z,6.80
2018-12-04T03:21:18.654Z,6.70
2018-12-04T03:23:47.319Z,6.70
2018-12-04T03:26:15.718Z,6.60
2018-12-04T03:28:44.217Z,6.70
2018-12-04T03:31:12.806Z,6.70
2018-12-04T03:33:41.602Z,6.80
2018-12-04T03:36:10.105Z,6.80
2018-12-04T03:38:38.753Z,6.80
2018-12-04T03:41:07.152Z,6.80
2018-12-04T03:43:35.455Z,6.90
2018-12-04T03:46:04.276Z,7.00
2018-12-04T03:48:32.684Z,7.00
2018-12-04T03:51:00.969Z,7.00
2018-12-04T03:53:29.450Z,7.00
2018-12-04T03:55:57.730Z,6.90
2018-12-04T03:58:26.026Z,6.90
2018-12-04T04:00:54.366Z,6.80
2018-12-04T04:03:22.673Z,6.80
2018-12-04T04:05:50.992Z,6.80
2018-12-04T04:08:19.981Z,6.80
2018-12-04T04:10:48.254Z,6.80
2018-12-04T04:13:16.561Z,6.80
2018-12-04T04:15:45.427Z,6.70
2018-12-04T04:18:13.730Z,6.70
2018-12-04T04:20:42.142Z,6.70
2018-12-04T04:23:10.467Z,6.70
2018-12-04T04:25:38.776Z,6.60
2018-12-04T04:28:07.110Z,6.50
2018-12-04T04:30:36.335Z,6.40
2018-12-04T04:33:04.703Z,6.40
2018-12-04T04:35:32.994Z,6.30
2018-12-04T04:38:01.311Z,6.30
2018-12-04T04:40:29.617Z,6.20
2018-12-04T04:42:57.925Z,6.20
2018-12-04T04:45:26.908Z,6.10
2018-12-04T04:47:55.290Z,6.10
2018-12-04T04:50:23.589Z,6.00
2018-12-04T04:52:52.152Z,6.00
2018-12-04T04:55:20.452Z,6.00
2018-12-04T04:57:48.858Z,5.90
2018-12-04T05:00:17.682Z,5.80
2018-12-04T05:02:46.006Z,5.80
2018-12-04T05:05:14.408Z,5.80
2018-12-04T05:07:43.032Z,5.80
2018-12-04T05:10:11.336Z,5.80
2018-12-04T05:12:39.718Z,5.80
2018-12-04T05:15:08.722Z,5.80
2018-12-04T05:17:37.055Z,5.80
2018-12-04T05:20:07.614Z,5.80
2018-12-04T05:22:36.397Z,5.80
2018-12-04T05:25:05.222Z,5.70
2018-12-04T05:27:33.655Z,5.70
2018-12-04T05:30:02.417Z,5.70
2018-12-04T05:32:30.809Z,5.70
2018-12-04T05:34:59.215Z,5.70
2018-12-04T05:37:31.894Z,5.80
2018-12-04T05:40:02.231Z,5.80
2018-12-04T05:42:31.713Z,5.80
2018-12-04T05:45:01.189Z,5.80
2018-12-04T05:47:29.730Z,5.80
2018-12-04T05:49:59.275Z,5.80
2018-12-04T05:52:29.009Z,5.70
2018-12-04T05:54:57.798Z,5.70
2018-12-04T05:57:26.590Z,5.70
2018-12-04T05:59:57.397Z,5.60
2018-12-04T06:02:26.160Z,5.60
2018-12-04T06:04:54.674Z,5.60
2018-12-04T06:07:24.420Z,5.60
2018-12-04T06:09:52.974Z,5.60
2018-12-04T06:12:22.123Z,5.50
2018-12-04T06:14:51.605Z,5.50
2018-12-04T06:17:20.628Z,5.40
2018-12-04T06:19:49.841Z,5.40
2018-12-04T06:22:18.732Z,5.40
2018-12-04T06:24:47.290Z,5.40
2018-12-04T06:27:15.922Z,5.40
2018-12-04T06:29:44.558Z,5.30
2018-12-04T06:32:14.214Z,5.30
2018-12-04T06:34:44.286Z,5.30
2018-12-04T06:37:13.483Z,5.20
2018-12-04T06:39:42.226Z,5.20
2018-12-04T06:42:10.844Z,5.20
2018-12-04T06:44:39.537Z,5.20
2018-12-04T06:47:08.181Z,5.20
2018-12-04T06:49:37.625Z,5.20
2018-12-04T06:52:07.996Z,5.20
2018-12-04T06:54:37.481Z,5.20
2018-12-04T06:57:06.428Z,5.20
2018-12-04T06:59:36.375Z,5.20
2018-12-04T07:02:05.259Z,5.10
2018-12-04T07:07:31.445Z,5.10
2018-12-04T07:09:59.788Z,5.00
2018-12-04T07:12:28.194Z,4.90
2018-12-04T07:14:56.925Z,4.90
2018-12-04T07:17:25.577Z,4.90
2018-12-04T07:19:53.894Z,4.90
2018-12-04T07:22:22.213Z,4.90
2018-12-04T07:24:50.538Z,5.00
2018-12-04T07:29:59.664Z,5.00
2018-12-04T07:32:28.145Z,4.90
2018-12-04T07:34:56.676Z,4.90
2018-12-04T07:37:25.417Z,4.90
2018-12-04T07:39:53.862Z,4.90
2018-12-04T07:42:22.171Z,5.00
2018-12-04T07:44:50.807Z,5.10
2018-12-04T07:47:19.213Z,5.00
2018-12-04T07:49:47.510Z,5.10
2018-12-04T07:52:15.850Z,5.00
2018-12-04T07:54:44.197Z,5.10
2018-12-04T07:57:12.502Z,5.00
2018-12-04T07:59:40.851Z,4.90
2018-12-04T08:02:09.240Z,5.00
2018-12-04T08:04:37.522Z,4.90
2018-12-04T08:07:06.427Z,4.80
2018-12-04T08:09:34.758Z,4.80
2018-12-04T08:12:03.062Z,4.90
2018-12-04T08:14:31.874Z,4.90
2018-12-04T08:17:00.212Z,4.90
2018-12-04T08:19:28.530Z,5.00
2018-12-04T08:21:56.850Z,5.00
2018-12-04T08:24:25.170Z,5.00
2018-12-04T08:26:53.482Z,5.00
2018-12-04T08:29:22.158Z,5.00
2018-12-04T08:31:50.450Z,5.10
2018-12-04T08:34:18.749Z,5.20
2018-12-04T08:36:47.167Z,5.20
2018-12-04T08:39:15.472Z,5.30
2018-12-04T08:41:43.769Z,5.30
2018-12-04T08:44:12.746Z,5.40
2018-12-04T08:46:41.058Z,5.50
2018-12-04T08:49:09.362Z,5.60
2018-12-04T08:51:38.166Z,5.60
2018-12-04T08:54:06.486Z,5.60
2018-12-04T08:56:34.798Z,5.70
2018-12-04T08:59:03.300Z,5.70
2018-12-04T09:01:31.635Z,5.70
2018-12-04T09:03:59.974Z,5.80
2018-12-04T09:06:32.526Z,5.90
2018-12-04T09:09:00.946Z,5.90
2018-12-04T09:11:29.257Z,6.00
2018-12-04T09:13:57.629Z,6.00
2018-12-04T09:16:25.930Z,6.20
2018-12-04T09:18:54.245Z,6.30
2018-12-04T09:21:23.026Z,6.40
2018-12-04T09:23:51.456Z,6.40
2018-12-04T09:26:19.859Z,6.50
2018-12-04T09:28:48.558Z,6.60
2018-12-04T09:31:16.934Z,6.60
2018-12-04T09:33:45.281Z,6.70
2018-12-04T09:36:13.719Z,6.70
2018-12-04T09:38:42.113Z,6.80
2018-12-04T09:41:10.532Z,6.90
2018-12-04T09:43:39.397Z,6.90
2018-12-04T09:46:07.698Z,7.00
2018-12-04T09:48:36.126Z,7.10
2018-12-04T09:51:04.606Z,7.20
2018-12-04T09:53:32.901Z,7.20
2018-12-04T09:56:01.237Z,7.30
2018-12-04T09:58:30.006Z,7.40
2018-12-04T10:00:58.330Z,7.50
2018-12-04T10:03:26.771Z,7.50
2018-12-04T10:05:55.242Z,7.60
2018-12-04T10:08:24.603Z,7.70
2018-12-04T10:10:53.162Z,7.70
2018-12-04T10:13:21.506Z,7.80
2018-12-04T10:15:49.883Z,7.90
2018-12-04T10:18:18.193Z,7.90
2018-12-04T10:20:46.598Z,8.00
2018-12-04T10:23:14.994Z,8.00
2018-12-04T10:25:49.261Z,8.10
2018-12-04T10:28:18.259Z,8.20
2018-12-04T10:30:50.873Z,8.30
2018-12-04T10:33:19.187Z,8.30
2018-12-04T10:35:47.501Z,8.40
2018-12-04T10:38:15.843Z,8.40
2018-12-04T10:40:44.565Z,8.40
2018-12-04T10:43:12.865Z,8.50
2018-12-04T10:45:41.773Z,8.50
2018-12-04T10:48:10.078Z,8.60
2018-12-04T10:50:38.383Z,8.70
2018-12-04T10:53:07.212Z,8.80
2018-12-04T10:55:35.517Z,8.80
2018-12-04T10:58:03.946Z,8.90
2018-12-04T11:02:44.179Z,8.90
2018-12-04T11:05:12.465Z,9.00
2018-12-04T11:07:40.769Z,9.10
2018-12-04T11:10:09.674Z,9.20
2018-12-04T11:12:38.026Z,9.10
2018-12-04T11:15:06.658Z,9.20
2018-12-04T11:17:36.548Z,9.30
2018-12-04T11:20:06.086Z,9.30
2018-12-04T11:22:34.374Z,9.40
2018-12-04T11:25:03.075Z,9.50
2018-12-04T11:27:31.530Z,9.70
2018-12-04T11:29:59.817Z,9.80
2018-12-04T11:32:28.871Z,10.00
2018-12-04T11:34:57.203Z,10.00
2018-12-04T11:37:25.503Z,9.80
2018-12-04T11:39:54.238Z,9.90
2018-12-04T11:42:22.597Z,9.70
2018-12-04T11:44:50.936Z,9.70
2018-12-04T11:47:19.879Z,9.70
2018-12-04T11:49:48.258Z,9.70
2018-12-04T11:52:16.562Z,9.60
2018-12-04T11:54:45.609Z,9.70
2018-12-04T11:57:13.928Z,9.40
2018-12-04T11:59:42.354Z,9.30
2018-12-04T12:02:11.166Z,9.00
2018-12-04T12:04:39.479Z,8.90
2018-12-04T12:07:07.879Z,8.70
2018-12-04T12:09:36.330Z,8.60
2018-12-04T12:12:04.846Z,8.40
2018-12-04T12:14:33.155Z,8.30
2018-12-04T12:17:01.962Z,8.30
2018-12-04T12:19:30.257Z,8.20
2018-12-04T12:21:58.557Z,8.10
2018-12-04T12:24:27.210Z,8.00
2018-12-04T12:26:55.506Z,8.00
2018-12-04T12:29:23.830Z,7.90
2018-12-04T12:31:53.142Z,8.10
2018-12-04T12:34:23.615Z,8.50
2018-12-04T12:36:52.068Z,8.70
2018-12-04T12:39:20.461Z,8.90
2018-12-04T12:41:49.254Z,9.00
2018-12-04T12:44:17.618Z,9.00
2018-12-04T12:46:45.957Z,9.10
2018-12-04T12:49:14.437Z,9.20
2018-12-04T12:51:43.294Z,9.20
2018-12-04T12:54:12.257Z,9.20
2018-12-04T12:56:40.730Z,9.30
2018-12-04T12:59:09.445Z,9.40
2018-12-04T13:01:37.858Z,9.50
2018-12-04T13:04:06.272Z,9.40
2018-12-04T13:06:35.033Z,9.40
2018-12-04T13:09:05.151Z,9.30
2018-12-04T13:11:33.690Z,9.30
2018-12-04T13:14:01.975Z,9.40
2018-12-04T13:16:30.757Z,9.40
2018-12-04T13:18:59.594Z,9.40
2018-12-04T13:21:27.890Z,9.40
2018-12-04T13:23:56.809Z,9.40
2018-12-04T13:26:25.136Z,9.30
2018-12-04T13:28:53.800Z,9.30
2018-12-04T13:31:22.386Z,9.20
2018-12-04T13:33:50.697Z,9.30
2018-12-04T13:36:19.092Z,9.20
2018-12-04T13:38:47.994Z,9.10
2018-12-04T13:41:16.326Z,9.10
2018-12-04T13:43:44.642Z,9.00
2018-12-04T13:46:13.081Z,8.90
2018-12-04T13:48:41.420Z,8.70
2018-12-04T13:51:09.835Z,8.70
2018-12-04T13:53:38.825Z,8.70
2018-12-04T13:56:07.257Z,8.70
2018-12-04T13:58:35.669Z,8.60
2018-12-04T14:01:04.736Z,8.50
2018-12-04T14:03:33.048Z,8.50
2018-12-04T14:06:01.451Z,8.40
2018-12-04T14:08:30.328Z,8.30
2018-12-04T14:10:58.633Z,8.20
2018-12-04T14:13:26.933Z,8.20
2018-12-04T14:15:56.923Z,8.00
2018-12-04T14:18:25.505Z,8.00
2018-12-04T14:20:53.803Z,7.90
2018-12-04T14:23:22.115Z,7.80
2018-12-04T14:25:50.456Z,7.80
2018-12-04T14:28:18.891Z,7.80
2018-12-04T14:30:47.310Z,7.70
2018-12-04T14:33:15.623Z,7.70
2018-12-04T14:35:43.958Z,7.70
2018-12-04T14:38:12.655Z,7.70
2018-12-04T14:40:40.955Z,7.60
2018-12-04T14:43:09.261Z,7.60
2018-12-04T14:45:37.941Z,7.60
2018-12-04T14:48:06.320Z,7.50
2018-12-04T14:50:34.751Z,7.50
2018-12-04T14:53:03.543Z,7.40
2018-12-04T14:55:32.341Z,7.20
2018-12-04T14:58:00.671Z,7.10
2018-12-04T15:00:29.739Z,7.10
2018-12-04T15:02:58.080Z,7.10
2018-12-04T15:05:26.495Z,6.90
2018-12-04T15:07:55.177Z,6.90
2018-12-04T15:10:23.591Z,6.80
2018-12-04T15:12:52.035Z,6.80
2018-12-04T15:15:20.411Z,6.70
2018-12-04T15:17:48.826Z,6.60
2018-12-04T15:20:17.271Z,6.60
2018-12-04T15:22:46.102Z,6.60
2018-12-04T15:25:14.436Z,6.50
2018-12-04T15:27:42.847Z,6.50
2018-12-04T15:30:11.631Z,6.40
2018-12-04T15:32:39.983Z,6.40
2018-12-04T15:35:08.572Z,6.30
2018-12-04T15:37:37.075Z,6.30
2018-12-04T15:40:07.231Z,6.20
2018-12-04T15:42:35.624Z,6.10
2018-12-04T15:45:05.050Z,6.00
2018-12-04T15:47:33.435Z,6.00
2018-12-04T15:50:02.005Z,5.90
2018-12-04T15:52:30.994Z,5.90
2018-12-04T15:54:59.367Z,5.90
2018-12-04T15:57:27.700Z,5.80
2018-12-04T15:59:56.382Z,5.80
2018-12-04T16:02:24.804Z,5.80
2018-12-04T16:04:53.133Z,5.70
2018-12-04T16:07:21.842Z,5.80
2018-12-04T16:09:50.165Z,5.70
2018-12-04T16:12:18.487Z,5.80
2018-12-04T16:14:46.851Z,5.80
2018-12-04T16:17:15.579Z,5.80
2018-12-04T16:19:50.281Z,5.80
2018-12-04T16:22:19.189Z,5.70
2018-12-04T16:24:48.226Z,5.70
2018-12-04T16:27:16.925Z,5.70
2018-12-04T16:29:46.042Z,5.60
2018-12-04T16:32:14.417Z,5.60
2018-12-04T16:34:42.756Z,5.60
2018-12-04T16:37:11.482Z,5.60
2018-12-04T16:39:39.898Z,5.60
2018-12-04T16:42:10.213Z,5.60
2018-12-04T16:44:38.607Z,5.60
2018-12-04T16:47:06.950Z,5.70
2018-12-04T16:49:35.281Z,5.80
2018-12-04T16:52:04.462Z,5.80
2018-12-04T16:54:32.875Z,5.70
2018-12-04T16:57:01.266Z,5.70
2018-12-04T16:59:30.111Z,5.70
2018-12-04T17:01:58.574Z,5.70
2018-12-04T17:04:26.958Z,5.70
2018-12-04T17:06:55.766Z,5.70
2018-12-04T17:09:24.108Z,5.70
2018-12-04T17:11:52.537Z,5.70
2018-12-04T17:14:20.997Z,5.70
2018-12-04T17:16:49.350Z,5.60
2018-12-04T17:19:17.831Z,5.60
2018-12-04T17:21:46.649Z,5.60
2018-12-04T17:24:15.005Z,5.60
2018-12-04T17:26:43.342Z,5.50
2018-12-04T17:29:12.024Z,5.50
2018-12-04T17:31:40.369Z,5.50
2018-12-04T17:34:08.725Z,5.40
2018-12-04T17:36:37.936Z,5.40
2018-12-04T17:39:07.826Z,5.30
2018-12-04T17:41:36.278Z,5.40
2018-12-04T17:44:04.977Z,5.30
2018-12-04T17:46:33.502Z,5.30
2018-12-04T17:49:01.835Z,5.20
2018-12-04T17:51:30.172Z,5.20
2018-12-04T17:53:58.730Z,5.20
2018-12-04T17:56:27.071Z,5.20
2018-12-04T17:58:55.696Z,5.10
2018-12-04T18:01:24.029Z,5.20
2018-12-04T18:03:52.345Z,5.20
2018-12-04T18:06:21.047Z,5.10
2018-12-04T18:08:49.367Z,5.10
2018-12-04T18:11:17.836Z,5.00
2018-12-04T18:13:46.191Z,5.00
2018-12-04T18:16:14.509Z,5.00
2018-12-04T18:18:42.842Z,4.90
2018-12-04T18:21:11.261Z,4.90
2018-12-04T18:23:39.659Z,4.80
2018-12-04T18:26:07.994Z,4.80
2018-12-04T18:28:36.461Z,4.80
2018-12-04T18:31:04.811Z,4.80
2018-12-04T18:33:33.171Z,4.70
2018-12-04T18:36:02.262Z,4.70
2018-12-04T18:38:30.677Z,4.70
2018-12-04T18:40:59.063Z,4.70
2018-12-04T18:43:28.051Z,4.60
2018-12-04T18:45:56.419Z,4.60
2018-12-04T18:48:24.766Z,4.60
2018-12-04T18:50:53.343Z,4.50
2018-12-04T18:53:21.742Z,4.50
2018-12-04T18:55:50.645Z,4.50
2018-12-04T18:58:19.678Z,4.50
2018-12-04T19:00:48.293Z,4.60
2018-12-04T19:03:16.657Z,4.60
2018-12-04T19:05:45.042Z,4.60
2018-12-04T19:08:13.421Z,4.50
2018-12-04T19:10:41.843Z,4.40
2018-12-04T19:13:10.290Z,4.40
2018-12-04T19:15:38.686Z,4.40
2018-12-04T19:18:07.054Z,4.40
2018-12-04T19:20:36.046Z,4.40
2018-12-04T19:23:04.415Z,4.30
2018-12-04T19:25:32.791Z,4.30
2018-12-04T19:28:01.424Z,4.30
2018-12-04T19:30:29.850Z,4.20
2018-12-04T19:32:58.193Z,4.20
2018-12-04T19:35:27.214Z,4.20
2018-12-04T19:37:55.844Z,4.20
2018-12-04T19:40:24.328Z,4.20
2018-12-04T19:42:52.812Z,4.10
2018-12-04T19:45:21.151Z,4.20
2018-12-04T19:47:49.515Z,4.20
2018-12-04T19:50:17.900Z,4.20
2018-12-04T19:52:46.407Z,4.20
2018-12-04T19:55:14.859Z,4.20
2018-12-04T19:57:43.832Z,4.20
2018-12-04T20:00:12.375Z,4.20
2018-12-04T20:02:40.775Z,4.20
2018-12-04T20:05:09.902Z,4.20
2018-12-04T20:07:38.252Z,4.20
2018-12-04T20:10:06.996Z,4.20
2018-12-04T20:12:35.347Z,4.20
2018-12-04T20:15:03.978Z,4.20
2018-12-04T20:17:32.723Z,4.10
2018-12-04T20:20:01.744Z,4.10
2018-12-04T20:22:30.187Z,4.10
2018-12-04T20:24:58.522Z,4.10
2018-12-04T20:27:27.467Z,4.00
2018-12-04T20:29:55.810Z,4.00
2018-12-04T20:32:24.141Z,4.10
2018-12-04T20:34:52.934Z,4.00
2018-12-04T20:37:21.280Z,4.00
2018-12-04T20:39:49.643Z,4.00
2018-12-04T20:42:23.279Z,4.00
2018-12-04T20:44:49.043Z,3.90
2018-12-04T20:47:17.378Z,3.90
2018-12-04T20:49:46.273Z,3.90
2018-12-04T20:52:14.802Z,4.00
2018-12-04T20:54:43.123Z,4.10
2018-12-04T20:57:12.180Z,4.10
2018-12-04T20:59:40.622Z,4.10
2018-12-04T21:02:09.066Z,4.00
2018-12-04T21:04:38.051Z,4.00
2018-12-04T21:07:06.387Z,4.00
2018-12-04T21:09:34.810Z,4.00
2018-12-04T21:12:03.848Z,3.90
2018-12-04T21:14:32.195Z,3.90
2018-12-04T21:17:00.515Z,3.90
2018-12-04T21:19:28.870Z,3.90
2018-12-04T21:21:57.210Z,3.90
2018-12-04T21:24:25.531Z,3.90
2018-12-04T21:26:54.053Z,3.90
2018-12-04T21:29:27.725Z,3.80
2018-12-04T21:32:01.406Z,3.60
2018-12-04T21:34:35.051Z,3.40
2018-12-04T21:37:09.042Z,3.50
2018-12-04T21:39:36.681Z,3.50
2018-12-04T21:44:16.152Z,3.50
2018-12-04T21:46:49.938Z,3.50
2018-12-04T21:49:18.288Z,3.50
2018-12-04T21:51:46.623Z,3.50
2018-12-04T21:54:14.955Z,3.50
2018-12-04T21:56:43.298Z,3.50
2018-12-04T21:59:11.644Z,3.50
2018-12-04T22:01:40.198Z,3.50
2018-12-04T22:04:08.831Z,3.50
2018-12-04T22:06:37.211Z,3.50
2018-12-04T22:09:07.397Z,3.50
2018-12-04T22:11:35.827Z,3.60
2018-12-04T22:14:04.402Z,3.50
2018-12-04T22:16:32.798Z,3.50
2018-12-04T22:19:01.762Z,3.50
2018-12-04T22:21:30.215Z,3.40
2018-12-04T22:23:58.550Z,3.40
2018-12-04T22:26:26.903Z,3.40
2018-12-04T22:28:55.230Z,3.40
2018-12-04T22:31:23.559Z,3.40
2018-12-04T22:33:52.311Z,3.40
2018-12-04T22:36:20.658Z,3.40
2018-12-04T22:38:48.982Z,3.50
2018-12-04T22:41:17.787Z,3.50
2018-12-04T22:43:46.130Z,3.50
2018-12-04T22:46:14.446Z,3.50
2018-12-04T22:48:42.921Z,3.50
2018-12-04T22:51:11.266Z,3.60
2018-12-04T22:53:39.743Z,3.60
2018-12-04T22:56:08.206Z,3.60
2018-12-04T22:58:36.535Z,3.60
2018-12-04T23:01:05.066Z,3.60
2018-12-04T23:03:33.498Z,3.60
2018-12-04T23:06:01.826Z,3.70
2018-12-04T23:08:30.138Z,3.70
2018-12-04T23:10:58.947Z,3.70
2018-12-04T23:13:27.286Z,3.70
2018-12-04T23:15:55.619Z,3.80
2018-12-04T23:18:23.999Z,3.80
2018-12-04T23:20:52.523Z,3.80
2018-12-04T23:23:20.846Z,3.80
2018-12-04T23:25:49.196Z,3.90
2018-12-04T23:28:17.534Z,3.90
2018-12-04T23:30:45.870Z,3.80
2018-12-04T23:33:14.775Z,3.80
2018-12-04T23:35:43.106Z,3.90
2018-12-04T23:38:11.460Z,3.90
2018-12-04T23:40:39.815Z,3.90
2018-12-04T23:43:08.166Z,4.00
2018-12-04T23:45:36.810Z,4.00
2018-12-04T23:48:05.385Z,4.00
2018-12-04T23:50:33.712Z,4.00
2018-12-04T23:53:02.035Z,4.00
2018-12-04T23:55:31.014Z,4.10
2018-12-04T23:57:59.350Z,4.10
